Time;durP1;ratioP1;P1;durP2;ratioP2;P2;SDS_P1;SDS_P2;PMS_P1;PMS_P2;Temp;Humidity;BMP_temperature;BMP_pressure;BME280_temperature;BME280_humidity;BME280_pressure;Samples;Min_cycle;Max_cycle;Signal;HPM_P1;HPM_P2
2024/03/06 00:02:24;;;;;;;15.77;10.47;;;;;;;6.62;79.90;96195.00;5012345;28;20690;-82
2024/03/06 00:04:54;;;;;;;19.10;9.40;;;;;;;6.28;79.48;96142.78;5011166;28;20223;-82
2024/03/06 00:07:21;;;;;;;12.17;9.63;;;;;;;6.69;78.88;96189.44;5011763;28;20628;-82
2024/03/06 00:09:47;;;;;;;14.07;9.20;;;;;;;6.69;79.04;96176.22;5012575;28;20289;-83
2024/03/06 00:12:14;;;;;;;14.23;9.83;;;;;;;6.56;79.42;96188.94;5011758;28;20277;-83
2024/03/06 00:14:41;;;;;;;19.17;10.27;;;;;;;6.65;78.64;96180.47;5012473;28;20210;-83
2024/03/06 00:17:09;;;;;;;15.10;10.47;;;;;;;6.68;79.26;96182.56;5012434;28;20273;-83
2024/03/06 00:19:36;;;;;;;17.83;10.20;;;;;;;6.43;80.26;96178.13;5012645;28;20196;-83
2024/03/06 00:22:04;;;;;;;15.67;11.17;;;;;;;6.21;80.91;96173.19;5010908;28;20199;-83
2024/03/06 00:24:32;;;;;;;16.00;10.17;;;;;;;6.38;81.02;96185.03;5011101;28;20644;-83
2024/03/06 00:26:59;;;;;;;19.70;11.80;;;;;;;6.45;80.69;96181.31;5010703;28;20302;-83
2024/03/06 00:29:25;;;;;;;17.33;11.73;;;;;;;6.30;81.49;96180.28;5010597;28;20282;-82
2024/03/06 00:31:52;;;;;;;20.40;12.80;;;;;;;6.27;81.50;96177.41;5010760;28;20577;-83
2024/03/06 00:34:19;;;;;;;16.63;11.33;;;;;;;6.16;81.32;96138.84;5011143;28;20202;-82
2024/03/06 00:36:46;;;;;;;16.80;10.83;;;;;;;6.23;81.52;96171.06;5011398;28;20227;-82
2024/03/06 00:39:15;;;;;;;23.50;16.70;;;;;;;6.23;82.09;96177.13;5025249;28;20194;-82
2024/03/06 00:41:42;;;;;;;15.33;10.77;;;;;;;6.24;80.74;96180.59;5003183;28;20199;-83
2024/03/06 00:44:09;;;;;;;17.43;10.13;;;;;;;6.30;80.28;96195.38;5011425;28;20203;-83
2024/03/06 00:46:35;;;;;;;14.67;9.87;;;;;;;6.18;80.00;96168.44;5009840;28;20206;-83
2024/03/06 00:49:02;;;;;;;17.67;12.33;;;;;;;6.43;80.03;96184.25;5010681;28;20249;-83
2024/03/06 00:51:29;;;;;;;15.10;11.17;;;;;;;6.26;80.20;96192.47;5011722;28;20249;-83
2024/03/06 00:53:56;;;;;;;16.37;11.43;;;;;;;6.24;80.86;96188.53;5012578;28;20203;-83
2024/03/06 00:56:25;;;;;;;19.90;12.53;;;;;;;6.36;80.50;96187.16;5013102;28;20198;-83
2024/03/06 00:58:52;;;;;;;17.50;10.50;;;;;;;6.40;80.45;96189.28;5014678;28;20214;-83
2024/03/06 01:01:18;;;;;;;16.20;9.97;;;;;;;6.42;80.52;96206.44;5013740;28;20199;-82
2024/03/06 01:03:45;;;;;;;14.43;9.23;;;;;;;6.34;81.07;96188.47;5014683;28;20211;-83
2024/03/06 01:06:12;;;;;;;12.27;8.53;;;;;;;6.40;81.28;96189.28;5013352;28;20273;-83
2024/03/06 01:08:39;;;;;;;14.10;9.63;;;;;;;6.19;81.99;96185.88;5014736;28;20207;-83
2024/03/06 01:11:06;;;;;;;14.40;10.40;;;;;;;6.09;82.40;96165.56;5014744;28;20199;-83
2024/03/06 01:13:35;;;;;;;7.97;6.87;;;;;;;6.26;82.31;96178.47;5016202;28;20202;-83
2024/03/06 01:16:02;;;;;;;8.33;7.37;;;;;;;5.96;82.22;96113.25;5018298;28;20238;-83
2024/03/06 01:18:29;;;;;;;6.43;5.80;;;;;;;6.39;82.33;96177.91;5013134;28;20257;-83
2024/03/06 01:20:56;;;;;;;8.17;6.17;;;;;;;6.48;82.00;96186.88;5013415;28;20203;-83
2024/03/06 01:23:22;;;;;;;9.60;7.07;;;;;;;6.40;82.51;96184.78;5014330;28;20551;-83
2024/03/06 01:25:49;;;;;;;12.07;7.07;;;;;;;6.22;82.07;96156.28;4974627;28;1135289;-82
2024/03/06 01:28:16;;;;;;;9.33;6.33;;;;;;;6.56;81.67;96188.94;5015128;28;20671;-83
2024/03/06 01:30:44;;;;;;;8.13;7.07;;;;;;;6.19;81.87;96135.66;5015664;28;20582;-83
2024/03/06 01:33:11;;;;;;;9.03;6.10;;;;;;;6.60;81.16;96197.94;5014041;28;20689;-83
2024/03/06 01:35:40;;;;;;;7.93;5.97;;;;;;;6.67;81.07;96220.66;5014199;28;20693;-83
2024/03/06 01:38:09;;;;;;;6.10;5.20;;;;;;;6.72;80.64;96202.91;5014693;28;20203;-83
2024/03/06 01:40:35;;;;;;;7.23;4.70;;;;;;;6.69;80.11;96203.44;5014706;28;20199;-83
2024/03/06 01:43:02;;;;;;;5.60;5.00;;;;;;;6.59;80.24;96214.84;5015771;28;20210;-84
2024/03/06 01:45:31;;;;;;;5.17;4.67;;;;;;;6.42;80.22;96189.78;5013973;28;20225;-83
2024/03/06 01:47:59;;;;;;;4.37;3.97;;;;;;;6.56;79.83;96215.38;5015031;28;20200;-84
2024/03/06 01:50:25;;;;;;;7.83;5.27;;;;;;;6.64;80.19;96221.97;5014887;28;20203;-84
2024/03/06 01:52:52;;;;;;;6.33;4.90;;;;;;;6.57;80.16;96224.91;5013344;28;20689;-84
2024/03/06 01:55:19;;;;;;;6.63;4.93;;;;;;;6.63;80.02;96227.56;5014327;28;20249;-84
2024/03/06 01:57:46;;;;;;;5.03;4.43;;;;;;;6.65;79.72;96228.84;5006395;28;20200;-83
2024/03/06 02:00:16;;;;;;;4.43;4.03;;;;;;;6.60;79.91;96224.38;5033196;28;20198;-83
2024/03/06 02:02:43;;;;;;;5.13;4.60;;;;;;;6.56;79.87;96231.25;5031090;28;20617;-83
2024/03/06 02:05:12;;;;;;;5.33;4.40;;;;;;;6.58;79.95;96230.97;5013437;28;20230;-83
2024/03/06 02:07:40;;;;;;;4.53;3.97;;;;;;;6.54;79.91;96232.56;5014081;28;20203;-83
2024/03/06 02:10:09;;;;;;;5.10;4.60;;;;;;;6.51;79.81;96238.41;5014368;28;20203;-83
2024/03/06 02:12:36;;;;;;;6.00;4.00;;;;;;;6.60;79.21;96228.88;5013463;28;20207;-83
2024/03/06 02:15:04;;;;;;;4.27;3.87;;;;;;;6.58;79.53;96237.09;5015137;28;20281;-83
2024/03/06 02:17:30;;;;;;;4.67;4.13;;;;;;;6.32;79.80;96209.13;5015130;28;20238;-83
2024/03/06 02:19:59;;;;;;;4.83;3.97;;;;;;;6.13;80.00;96217.59;5012916;28;20199;-83
2024/03/06 02:22:27;;;;;;;4.50;4.03;;;;;;;6.35;79.93;96237.66;5013306;28;20226;-83
2024/03/06 02:24:54;;;;;;;5.10;4.33;;;;;;;6.24;80.31;96238.72;5014412;28;20199;-83
2024/03/06 02:27:20;;;;;;;6.27;4.70;;;;;;;6.58;79.19;96231.78;5013260;28;20755;-82
2024/03/06 02:29:47;;;;;;;4.67;4.17;;;;;;;6.69;78.24;96240.47;5013480;28;20633;-82
2024/03/06 02:32:14;;;;;;;5.50;3.90;;;;;;;6.55;77.72;96228.91;5013168;28;20222;-83
2024/03/06 02:34:41;;;;;;;4.63;4.17;;;;;;;6.29;79.12;96242.16;5018773;28;20198;-83
2024/03/06 02:37:08;;;;;;;5.13;3.87;;;;;;;6.22;79.85;96227.63;5026005;28;20203;-83
2024/03/06 02:39:36;;;;;;;5.53;4.10;;;;;;;6.35;79.51;96241.09;5014212;28;20631;-83
2024/03/06 02:42:05;;;;;;;6.73;4.77;;;;;;;6.35;79.55;96246.38;5013206;28;20206;-83
2024/03/06 02:44:31;;;;;;;4.83;4.10;;;;;;;6.21;79.39;96244.53;5013726;28;20199;-83
2024/03/06 02:46:58;;;;;;;4.47;4.07;;;;;;;6.27;79.90;96239.00;5012563;28;20227;-82
2024/03/06 02:49:25;;;;;;;4.63;4.23;;;;;;;6.26;79.46;96226.81;5012711;28;20199;-83
2024/03/06 02:51:52;;;;;;;4.57;3.97;;;;;;;6.35;78.04;96209.38;5013887;28;20202;-83
2024/03/06 02:54:19;;;;;;;4.73;4.23;;;;;;;6.51;78.55;96244.50;5013594;28;20268;-83
2024/03/06 02:56:47;;;;;;;4.13;3.73;;;;;;;6.25;78.50;96222.59;5014168;28;20207;-83
2024/03/06 02:59:14;;;;;;;8.20;5.10;;;;;;;6.28;78.87;96239.78;5013642;28;20199;-83
2024/03/06 03:01:40;;;;;;;5.93;3.97;;;;;;;6.14;78.95;96244.81;5006880;28;20694;-83
2024/03/06 03:04:07;;;;;;;4.47;4.07;;;;;;;6.08;79.68;96246.69;5001481;28;20211;-83
2024/03/06 03:06:34;;;;;;;3.90;3.60;;;;;;;6.18;79.43;96250.34;5012589;28;20318;-83
2024/03/06 03:09:01;;;;;;;4.17;3.07;;;;;;;6.04;79.80;96258.00;5013678;28;20291;-83
2024/03/06 03:11:28;;;;;;;4.23;3.77;;;;;;;6.06;78.73;96264.63;5012391;28;20203;-83
2024/03/06 03:13:56;;;;;;;3.97;3.30;;;;;;;5.89;79.31;96219.97;5013081;28;20211;-84
2024/03/06 03:16:23;;;;;;;3.97;3.43;;;;;;;5.86;80.13;96235.56;5011627;28;20195;-83
2024/03/06 03:18:50;;;;;;;5.40;3.90;;;;;;;5.97;80.36;96252.22;5013802;28;20249;-84
2024/03/06 03:21:17;;;;;;;4.67;3.77;;;;;;;6.17;78.99;96244.28;5016823;28;20289;-83
2024/03/06 03:23:44;;;;;;;4.83;4.07;;;;;;;6.07;79.56;96249.56;5016153;28;20199;-84
2024/03/06 03:26:11;;;;;;;4.93;3.50;;;;;;;5.76;79.32;96203.84;5013327;28;20231;-84
2024/03/06 03:28:40;;;;;;;6.10;4.63;;;;;;;5.74;79.24;96195.41;5011710;28;20291;-83
2024/03/06 03:31:09;;;;;;;6.20;4.97;;;;;;;5.95;79.49;96246.41;5012650;28;20253;-83
2024/03/06 03:33:38;;;;;;;5.57;5.03;;;;;;;5.93;79.10;96256.47;5012368;28;21230;-83
2024/03/06 03:36:06;;;;;;;6.40;5.73;;;;;;;5.78;79.33;96255.34;5005903;28;20537;-83
2024/03/06 03:38:35;;;;;;;6.00;5.30;;;;;;;5.94;78.50;96255.41;4993125;28;20243;-83
2024/03/06 03:41:03;;;;;;;8.47;6.70;;;;;;;5.33;78.28;96155.78;4996393;28;20261;-86
2024/03/06 03:43:31;;;;;;;6.63;5.70;;;;;;;5.77;79.23;96252.97;5005717;28;20227;-84
2024/03/06 03:45:57;;;;;;;6.17;5.43;;;;;;;5.68;79.87;96263.25;5012787;28;20314;-84
2024/03/06 03:48:26;;;;;;;7.30;5.73;;;;;;;5.29;78.95;96234.69;5011811;28;20627;-83
2024/03/06 03:50:52;;;;;;;6.93;5.43;;;;;;;5.51;79.58;96268.78;5012679;28;20199;-83
2024/03/06 03:53:19;;;;;;;7.47;4.33;;;;;;;5.39;79.58;96278.78;5011558;28;20569;-84
2024/03/06 03:55:46;;;;;;;4.80;4.27;;;;;;;5.60;78.83;96275.13;5012195;28;20199;-83
2024/03/06 03:58:13;;;;;;;4.37;3.73;;;;;;;5.49;78.81;96284.06;5003343;28;20208;-84
2024/03/06 04:00:40;;;;;;;5.10;4.37;;;;;;;5.11;79.84;96278.19;5013011;28;20214;-83
2024/03/06 04:03:06;;;;;;;5.30;4.80;;;;;;;5.31;79.93;96287.22;5011463;28;20200;-83
2024/03/06 04:05:35;;;;;;;5.27;4.73;;;;;;;5.14;80.03;96293.47;4993120;28;20220;-83
2024/03/06 04:08:01;;;;;;;4.67;4.07;;;;;;;5.26;80.09;96297.72;4992810;28;20204;-84
2024/03/06 04:10:28;;;;;;;5.10;4.57;;;;;;;5.09;79.90;96293.47;4992993;28;20208;-84
2024/03/06 04:12:55;;;;;;;4.63;4.07;;;;;;;5.35;79.98;96296.97;5005927;28;20210;-83
2024/03/06 04:15:22;;;;;;;4.40;4.00;;;;;;;5.17;79.62;96299.28;5002555;28;20200;-85
2024/03/06 04:17:49;;;;;;;4.40;4.00;;;;;;;5.20;79.66;96280.31;5011756;28;20258;-86
2024/03/06 04:20:16;;;;;;;4.27;3.83;;;;;;;5.23;78.30;96274.53;5011492;28;20199;-88
2024/03/06 04:22:46;;;;;;;4.77;4.27;;;;;;;4.66;81.49;96268.22;5012891;28;20270;-90
2024/03/06 04:25:13;;;;;;;4.57;4.17;;;;;;;5.03;81.29;96307.66;5011554;28;20203;-89
2024/03/06 04:27:39;;;;;;;9.33;6.50;;;;;;;5.04;80.45;96301.34;5011497;28;20246;-89
2024/03/06 04:30:07;;;;;;;10.13;7.10;;;;;;;5.15;80.16;96302.19;5011967;28;20199;-89
2024/03/06 04:32:34;;;;;;;6.27;5.37;;;;;;;5.32;80.06;96309.91;5011817;28;20250;-89
2024/03/06 04:35:01;;;;;;;6.53;4.53;;;;;;;5.04;80.35;96282.09;5012677;28;20210;-89
2024/03/06 04:37:29;;;;;;;4.93;3.93;;;;;;;4.89;81.63;96278.34;5013811;28;20646;-86
2024/03/06 04:39:57;;;;;;;5.37;4.70;;;;;;;4.69;81.68;96269.56;5014834;28;20615;-90
2024/03/06 04:42:24;;;;;;;4.97;4.37;;;;;;;4.93;81.21;96317.38;5012136;28;20196;-88
2024/03/06 04:44:51;;;;;;;4.20;3.77;;;;;;;5.03;81.04;96310.31;5012546;28;20214;-89
2024/03/06 04:47:19;;;;;;;7.10;4.33;;;;;;;4.70;80.79;96274.56;5012523;28;20227;-89
2024/03/06 04:49:46;;;;;;;11.43;9.23;;;;;;;4.76;81.56;96299.91;5012184;28;20209;-89
2024/03/06 04:52:13;;;;;;;14.60;10.70;;;;;;;5.09;80.79;96330.38;4993690;28;20550;-89
2024/03/06 04:54:40;;;;;;;14.50;9.73;;;;;;;5.04;80.46;96322.47;5023709;28;20209;-90
2024/03/06 04:57:08;;;;;;;15.10;9.03;;;;;;;5.09;79.68;96296.09;5013162;28;20562;-90
2024/03/06 04:59:35;;;;;;;11.20;8.07;;;;;;;5.30;78.93;96312.78;5002985;28;20207;-88
2024/03/06 05:02:03;;;;;;;9.30;7.80;;;;;;;5.34;79.19;96321.78;5003809;28;20208;-88
2024/03/06 05:04:30;;;;;;;11.20;10.00;;;;;;;5.13;79.27;96294.53;5011116;28;20294;-88
2024/03/06 05:06:56;;;;;;;10.60;8.50;;;;;;;5.24;79.44;96290.09;5010276;28;20230;-88
2024/03/06 05:09:23;;;;;;;11.73;8.50;;;;;;;5.23;79.76;96327.28;5011099;28;20203;-88
2024/03/06 05:11:51;;;;;;;18.00;16.00;;;;;;;5.19;79.91;96302.44;5011919;28;20261;-88
2024/03/06 05:14:19;;;;;;;13.20;8.40;;;;;;;4.96;80.28;96307.13;5012328;28;20724;-90
2024/03/06 05:16:46;;;;;;;6.23;5.63;;;;;;;5.08;80.76;96346.47;5012670;28;20632;-91
2024/03/06 05:19:14;;;;;;;7.73;6.43;;;;;;;5.23;81.37;96328.09;4994704;28;20218;-91
2024/03/06 05:21:41;;;;;;;6.47;5.73;;;;;;;5.32;81.26;96328.38;5013433;28;20211;-90
2024/03/06 05:24:08;;;;;;;6.33;4.83;;;;;;;5.35;81.84;96319.94;5014829;28;20666;-89
2024/03/06 05:26:35;;;;;;;8.80;7.50;;;;;;;5.26;82.10;96335.47;5010820;28;20231;-90
2024/03/06 05:29:02;;;;;;;7.47;6.57;;;;;;;5.25;82.23;96343.66;5018137;28;20256;-89
2024/03/06 05:31:30;;;;;;;7.97;7.17;;;;;;;5.36;81.56;96330.22;5030020;28;20613;-89
2024/03/06 05:33:57;;;;;;;10.27;6.77;;;;;;;5.33;81.24;96308.84;5011785;28;20681;-87
2024/03/06 05:36:23;;;;;;;7.37;6.60;;;;;;;5.60;81.09;96346.41;5012395;28;20203;-84
2024/03/06 05:38:50;;;;;;;11.30;10.13;;;;;;;5.88;80.86;96347.00;5030084;28;20214;-86
2024/03/06 05:41:19;;;;;;;12.30;10.77;;;;;;;5.92;80.89;96348.09;5022564;28;20203;-84
2024/03/06 05:43:45;;;;;;;12.73;11.37;;;;;;;6.10;80.82;96349.44;5014346;28;20204;-84
2024/03/06 05:46:12;;;;;;;14.27;11.37;;;;;;;5.64;81.32;96283.31;5005593;28;20228;-82
2024/03/06 05:48:40;;;;;;;7.60;6.90;;;;;;;6.26;80.51;96366.09;5014099;28;20203;-81
2024/03/06 05:51:07;;;;;;;8.00;7.23;;;;;;;6.05;81.01;96363.44;5014891;28;20199;-81
2024/03/06 05:53:37;;;;;;;13.87;10.83;;;;;;;5.98;80.96;96354.19;5012727;28;20235;-82
2024/03/06 05:56:06;;;;;;;20.93;18.27;;;;;;;6.16;80.94;96358.16;5014699;28;20199;-81
2024/03/06 05:58:34;;;;;;;27.47;18.50;;;;;;;6.26;81.10;96372.19;5015539;28;20307;-81
2024/03/06 06:01:01;;;;;;;15.63;13.93;;;;;;;6.42;81.14;96372.19;5012517;28;20250;-81
2024/03/06 06:03:28;;;;;;;17.77;12.83;;;;;;;6.48;81.33;96377.22;5013925;28;20202;-81
2024/03/06 06:05:57;;;;;;;26.43;17.70;;;;;;;6.26;81.66;96376.66;5013777;28;20230;-83
2024/03/06 06:08:24;;;;;;;19.27;16.00;;;;;;;5.82;81.84;96327.72;5013540;28;20200;-81
2024/03/06 06:10:52;;;;;;;16.73;13.00;;;;;;;6.12;82.12;96371.91;5010873;28;20650;-82
2024/03/06 06:13:19;;;;;;;15.93;12.97;;;;;;;6.27;81.83;96381.72;5003807;28;20203;-81
2024/03/06 06:15:46;;;;;;;13.33;9.30;;;;;;;6.29;81.36;96384.09;5013459;28;20195;-81
2024/03/06 06:18:13;;;;;;;11.13;9.27;;;;;;;6.38;81.64;96388.56;5013031;28;20218;-81
2024/03/06 06:20:41;;;;;;;9.50;8.50;;;;;;;6.53;80.93;96390.44;5000357;28;20210;-81
2024/03/06 06:23:09;;;;;;;10.80;8.30;;;;;;;6.51;81.10;96375.91;5013728;28;20199;-81
2024/03/06 06:25:36;;;;;;;12.47;9.03;;;;;;;6.64;81.24;96385.16;5012638;28;20299;-81
2024/03/06 06:28:03;;;;;;;11.03;8.47;;;;;;;6.78;80.98;96375.63;5013535;28;20231;-81
2024/03/06 06:30:30;;;;;;;9.67;8.50;;;;;;;6.87;80.75;96379.31;5013105;28;20200;-81
2024/03/06 06:32:57;;;;;;;11.73;8.70;;;;;;;6.98;80.21;96375.59;5013153;28;20210;-81
2024/03/06 06:35:25;;;;;;;8.57;7.67;;;;;;;6.99;79.85;96374.50;5012930;28;20206;-81
2024/03/06 06:37:51;;;;;;;12.07;8.37;;;;;;;7.08;80.11;96380.84;5013377;28;20203;-81
2024/03/06 06:40:20;;;;;;;10.63;8.33;;;;;;;7.14;80.01;96386.91;5012996;28;20598;-81
2024/03/06 06:42:50;;;;;;;9.57;8.03;;;;;;;7.23;79.64;96377.34;5013411;28;20199;-81
2024/03/06 06:45:17;;;;;;;11.23;8.67;;;;;;;7.27;80.09;96372.31;5012913;28;20196;-82
2024/03/06 06:47:44;;;;;;;12.30;8.67;;;;;;;7.44;79.32;96380.75;5013177;28;20234;-81
2024/03/06 06:50:11;;;;;;;9.13;6.90;;;;;;;7.43;78.99;96375.72;5012103;28;20572;-81
2024/03/06 06:52:38;;;;;;;13.60;9.43;;;;;;;7.55;79.16;96374.34;5013039;28;20207;-81
2024/03/06 06:55:05;;;;;;;11.20;8.80;;;;;;;7.56;79.11;96375.94;5012707;28;20210;-80
2024/03/06 06:57:34;;;;;;;8.17;7.20;;;;;;;7.45;79.46;96374.38;5012980;28;20257;-82
2024/03/06 07:00:10;;;;;;;14.30;10.00;;;;;;;7.39;79.48;96353.47;5012750;28;20206;-81
2024/03/06 07:02:38;;;;;;;9.93;8.43;;;;;;;7.75;78.09;96386.72;5012629;28;20697;-82
2024/03/06 07:05:05;;;;;;;17.03;7.70;;;;;;;7.71;77.35;96385.66;5012722;28;20200;-80
2024/03/06 07:07:32;;;;;;;9.90;8.40;;;;;;;7.97;76.52;96391.59;5012416;28;20223;-80
2024/03/06 07:09:59;;;;;;;12.97;9.17;;;;;;;8.02;77.12;96388.94;5012478;28;20606;-81
2024/03/06 07:12:26;;;;;;;8.00;6.53;;;;;;;7.92;77.30;96394.28;5012470;28;20249;-81
2024/03/06 07:14:54;;;;;;;8.07;6.63;;;;;;;7.94;76.95;96402.78;5012358;28;20613;-81
2024/03/06 07:17:21;;;;;;;11.00;6.97;;;;;;;8.22;76.48;96401.28;5012104;28;20215;-80
2024/03/06 07:19:47;;;;;;;9.40;7.20;;;;;;;8.29;75.67;96403.63;5012658;28;20203;-80
2024/03/06 07:22:14;;;;;;;7.90;7.00;;;;;;;8.33;75.79;96407.31;5011211;28;20214;-81
2024/03/06 07:24:43;;;;;;;8.97;6.70;;;;;;;7.94;76.35;96370.19;5011546;28;20254;-80
2024/03/06 07:27:10;;;;;;;8.87;6.67;;;;;;;8.33;76.09;96412.63;5011976;28;20227;-80
2024/03/06 07:29:37;;;;;;;10.00;6.30;;;;;;;8.31;75.15;96414.75;5012309;28;20205;-80
2024/03/06 07:32:06;;;;;;;10.83;6.87;;;;;;;8.43;74.81;96409.13;5011925;28;20657;-80
2024/03/06 07:34:33;;;;;;;9.27;6.67;;;;;;;8.51;73.83;96404.00;5012413;28;20568;-80
2024/03/06 07:36:59;;;;;;;8.83;7.03;;;;;;;8.49;74.74;96416.78;5012095;28;20195;-80
2024/03/06 07:39:31;;;;;;;11.53;5.93;;;;;;;8.43;72.53;96387.91;5012112;28;20223;-81
2024/03/06 07:41:58;;;;;;;6.67;5.73;;;;;;;8.78;73.68;96408.06;5012321;28;20200;-81
2024/03/06 07:44:27;;;;;;;11.17;7.17;;;;;;;9.13;72.06;96403.50;5009735;28;20207;-80
2024/03/06 07:46:54;;;;;;;10.50;6.90;;;;;;;9.36;70.05;96402.72;5012189;28;20242;-80
2024/03/06 07:49:22;;;;;;;9.77;6.67;;;;;;;9.59;68.93;96405.66;5011461;28;20674;-80
2024/03/06 07:51:49;;;;;;;13.27;7.37;;;;;;;9.72;66.94;96408.44;5011818;28;20191;-80
2024/03/06 07:54:16;;;;;;;9.70;7.80;;;;;;;9.96;65.35;96412.91;5011699;28;20204;-80
2024/03/06 07:56:42;;;;;;;19.03;13.73;;;;;;;9.85;66.38;96411.47;5012090;28;20262;-80
2024/03/06 07:59:12;;;;;;;9.67;7.60;;;;;;;9.77;66.06;96403.03;5011731;28;20199;-80
2024/03/06 08:01:39;;;;;;;10.37;6.70;;;;;;;9.91;65.16;96411.13;5011465;28;20279;-80
2024/03/06 08:04:06;;;;;;;10.53;7.33;;;;;;;9.79;64.82;96413.38;5011696;28;20195;-80
2024/03/06 08:06:37;;;;;;;7.27;6.53;;;;;;;9.93;64.91;96411.63;5011832;28;20211;-80
2024/03/06 08:09:04;;;;;;;9.53;7.10;;;;;;;9.85;64.78;96416.78;5011659;28;20207;-80
2024/03/06 08:11:31;;;;;;;8.73;7.23;;;;;;;9.75;64.39;96426.44;5011625;28;20199;-80
2024/03/06 08:13:58;;;;;;;7.27;6.47;;;;;;;9.78;64.25;96419.78;5011452;28;20203;-80
2024/03/06 08:16:26;;;;;;;8.33;6.30;;;;;;;9.98;64.38;96427.50;5011261;28;20262;-80
2024/03/06 08:18:52;;;;;;;9.57;6.77;;;;;;;10.06;63.85;96444.69;5011313;28;20249;-80
2024/03/06 08:21:20;;;;;;;10.03;6.90;;;;;;;10.16;62.81;96422.50;5011620;28;20200;-80
2024/03/06 08:23:49;;;;;;;8.10;6.50;;;;;;;10.20;62.81;96428.81;5011628;28;20277;-80
2024/03/06 08:26:16;;;;;;;7.20;6.50;;;;;;;9.84;63.19;96417.88;5011331;28;20223;-79
2024/03/06 08:28:42;;;;;;;6.33;5.70;;;;;;;9.91;63.14;96424.41;5011120;28;20220;-79
2024/03/06 08:31:09;;;;;;;8.20;5.83;;;;;;;9.87;63.00;96423.38;5011527;28;20203;-80
2024/03/06 08:33:36;;;;;;;8.13;6.30;;;;;;;10.07;63.56;96427.66;5010889;28;20686;-80
2024/03/06 08:36:03;;;;;;;9.10;6.53;;;;;;;10.34;62.10;96427.06;5011167;28;20250;-79
2024/03/06 08:38:30;;;;;;;7.80;6.10;;;;;;;10.28;62.90;96426.31;5011413;28;20195;-80
2024/03/06 08:40:58;;;;;;;6.77;5.80;;;;;;;10.28;63.24;96425.53;5011097;28;20670;-79
2024/03/06 08:43:26;;;;;;;7.53;5.40;;;;;;;9.85;63.49;96436.19;5011020;28;20628;-79
2024/03/06 08:45:53;;;;;;;6.63;5.40;;;;;;;9.64;64.48;96435.63;5011180;28;20203;-79
2024/03/06 08:48:19;;;;;;;9.27;6.23;;;;;;;9.86;64.72;96424.47;5011182;28;20226;-80
2024/03/06 08:50:46;;;;;;;10.00;6.73;;;;;;;9.57;64.48;96403.31;5011145;28;20615;-79
2024/03/06 08:53:15;;;;;;;8.90;7.50;;;;;;;9.91;64.60;96424.41;5010402;28;20299;-80
2024/03/06 08:55:42;;;;;;;8.57;5.43;;;;;;;9.96;64.52;96429.66;5010901;28;20199;-79
2024/03/06 08:58:10;;;;;;;8.53;7.30;;;;;;;10.24;63.42;96429.81;5011118;28;20206;-79
2024/03/06 09:00:37;;;;;;;5.63;5.03;;;;;;;10.84;61.38;96423.91;5011084;28;20200;-79
2024/03/06 09:03:05;;;;;;;10.17;5.87;;;;;;;10.51;60.74;96427.31;5010997;28;20286;-79
2024/03/06 09:05:32;;;;;;;15.37;6.43;;;;;;;11.12;60.11;96432.78;5010400;28;20206;-80
2024/03/06 09:07:59;;;;;;;10.30;5.60;;;;;;;11.57;58.20;96430.34;5011096;28;20254;-79
2024/03/06 09:10:25;;;;;;;5.97;5.03;;;;;;;11.32;58.34;96426.28;5010885;28;20204;-79
2024/03/06 09:12:52;;;;;;;6.17;5.57;;;;;;;11.08;59.17;96434.44;5010704;28;20222;-79
2024/03/06 09:15:20;;;;;;;6.47;5.47;;;;;;;10.99;60.04;96440.41;5013943;28;20195;-79
2024/03/06 09:17:48;;;;;;;10.07;5.97;;;;;;;10.75;60.06;96431.75;5015061;28;20226;-79
2024/03/06 09:20:16;;;;;;;6.83;4.67;;;;;;;10.41;60.00;96392.88;5014481;28;20307;-79
2024/03/06 09:22:43;;;;;;;8.20;4.23;;;;;;;10.80;60.22;96444.19;5015027;28;20231;-79
2024/03/06 09:25:12;;;;;;;6.50;5.03;;;;;;;10.49;60.43;96442.81;5001227;28;20287;-79
2024/03/06 09:27:40;;;;;;;6.77;4.83;;;;;;;10.47;60.26;96439.63;5014920;28;20274;-79
2024/03/06 09:30:08;;;;;;;7.50;4.37;;;;;;;10.60;58.71;96437.31;5014473;28;20202;-79
2024/03/06 09:32:37;;;;;;;6.57;4.97;;;;;;;11.24;57.76;96441.06;5014298;28;20287;-79
2024/03/06 09:35:04;;;;;;;7.20;5.30;;;;;;;12.34;54.73;96438.38;5014594;28;20210;-79
2024/03/06 09:37:31;;;;;;;10.33;4.77;;;;;;;13.03;53.13;96427.44;5014165;28;20226;-79
2024/03/06 09:39:58;;;;;;;6.20;4.70;;;;;;;12.92;51.57;96434.13;5014288;28;20262;-79
2024/03/06 09:42:26;;;;;;;6.50;4.53;;;;;;;12.78;51.49;96426.19;5014600;28;20203;-79
2024/03/06 09:44:53;;;;;;;7.30;5.10;;;;;;;12.23;53.42;96421.84;5014042;28;20203;-79
2024/03/06 09:47:24;;;;;;;6.63;5.43;;;;;;;12.04;54.07;96412.38;5014531;28;20227;-78
2024/03/06 09:49:54;;;;;;;6.57;5.13;;;;;;;11.74;54.86;96395.91;5013838;28;20199;-79
2024/03/06 09:52:21;;;;;;;6.17;4.83;;;;;;;13.61;50.55;96415.81;5014203;28;20619;-79
2024/03/06 09:54:49;;;;;;;7.03;4.63;;;;;;;14.38;47.08;96418.97;5013635;28;20210;-79
2024/03/06 09:57:16;;;;;;;8.03;4.50;;;;;;;14.67;46.76;96421.03;5014236;28;20199;-79
2024/03/06 09:59:43;;;;;;;6.03;4.60;;;;;;;13.67;48.96;96422.59;5013396;28;20196;-79
2024/03/06 10:02:27;;;;;;;5.13;4.43;;;;;;;12.28;52.30;96404.91;5014256;28;20617;-79
2024/03/06 10:04:55;;;;;;;5.60;5.03;;;;;;;11.99;53.29;96416.72;5013764;28;20678;-79
2024/03/06 10:07:22;;;;;;;6.73;4.37;;;;;;;11.80;53.77;96407.22;5013630;28;20199;-79
2024/03/06 10:09:48;;;;;;;5.40;4.23;;;;;;;13.27;49.69;96421.00;5013736;28;20207;-79
2024/03/06 10:12:18;;;;;;;6.80;4.57;;;;;;;14.70;45.82;96427.66;5014063;28;20258;-79
2024/03/06 10:14:50;;;;;;;9.03;4.47;;;;;;;15.45;43.22;96433.50;5013666;28;20253;-79
2024/03/06 10:17:22;;;;;;;4.90;4.40;;;;;;;13.29;48.69;96416.94;5013391;28;20223;-79
2024/03/06 10:19:51;;;;;;;4.87;3.73;;;;;;;13.13;49.46;96421.84;5013501;28;20596;-79
2024/03/06 10:22:20;;;;;;;5.87;3.57;;;;;;;12.13;51.71;96400.69;5013310;28;20250;-79
2024/03/06 10:24:47;;;;;;;6.00;4.20;;;;;;;12.76;51.79;96422.25;5013233;28;20637;-78
2024/03/06 10:27:17;;;;;;;4.27;3.87;;;;;;;12.86;49.45;96422.78;5013166;28;20226;-79
2024/03/06 10:29:44;;;;;;;5.23;4.53;;;;;;;12.91;48.79;96411.19;5013222;28;20286;-79
2024/03/06 10:32:11;;;;;;;3.97;3.57;;;;;;;12.61;49.76;96392.13;5013621;28;20266;-79
2024/03/06 10:34:40;;;;;;;4.93;4.43;;;;;;;14.42;46.51;96418.00;5013305;28;20223;-78
2024/03/06 10:37:07;;;;;;;5.53;4.37;;;;;;;14.09;47.00;96384.75;5013307;28;20210;-79
2024/03/06 10:39:39;;;;;;;4.97;4.27;;;;;;;14.25;45.24;96411.84;5013059;28;20209;-79
2024/03/06 10:42:08;;;;;;;4.50;4.10;;;;;;;13.48;45.55;96327.69;5001971;28;20207;-79
2024/03/06 10:44:36;;;;;;;4.73;3.87;;;;;;;13.79;47.14;96410.53;5012947;28;20203;-79
2024/03/06 10:47:06;;;;;;;6.47;4.37;;;;;;;13.60;48.15;96402.75;5012826;28;20199;-79
2024/03/06 10:49:34;;;;;;;5.97;5.23;;;;;;;13.16;48.69;96401.72;5013062;28;20476;-79
2024/03/06 10:52:01;;;;;;;5.53;4.30;;;;;;;12.94;49.85;96405.25;5012917;28;20713;-79
2024/03/06 10:54:30;;;;;;;5.43;4.70;;;;;;;12.78;48.59;96404.81;5012662;28;20200;-79
2024/03/06 10:56:59;;;;;;;6.67;4.03;;;;;;;12.62;49.15;96393.72;5013030;28;20283;-78
2024/03/06 10:59:28;;;;;;;4.90;4.30;;;;;;;12.33;49.71;96383.44;5012462;28;20208;-78
2024/03/06 11:01:56;;;;;;;4.63;4.13;;;;;;;12.21;50.76;96391.19;5012609;28;20203;-79
2024/03/06 11:04:28;;;;;;;7.07;4.50;;;;;;;12.14;50.99;96396.94;5012466;28;20230;-79
2024/03/06 11:06:55;;;;;;;4.37;3.97;;;;;;;11.87;52.45;96389.78;5012566;28;20286;-79
2024/03/06 11:09:22;;;;;;;5.30;4.33;;;;;;;11.78;52.10;96382.75;5012088;28;20222;-78
2024/03/06 11:11:51;;;;;;;6.80;4.40;;;;;;;11.67;53.60;96390.16;5012811;28;20207;-79
2024/03/06 11:14:21;;;;;;;6.27;5.37;;;;;;;11.73;54.00;96387.09;5012468;28;20672;-79
2024/03/06 11:17:00;;;;;;;5.77;5.27;;;;;;;11.91;53.32;96385.41;5012415;28;20265;-79
2024/03/06 11:19:27;;;;;;;6.53;4.67;;;;;;;11.63;52.98;96381.97;5012102;28;20257;-79
2024/03/06 11:21:54;;;;;;;5.93;4.67;;;;;;;11.48;53.72;96385.72;5012057;28;20235;-79
2024/03/06 11:24:21;;;;;;;7.43;4.73;;;;;;;11.32;54.50;96388.97;5012546;28;20203;-78
2024/03/06 11:26:56;;;;;;;5.37;4.87;;;;;;;11.34;54.33;96384.91;5012518;28;20309;-79
2024/03/06 11:29:26;;;;;;;6.50;5.20;;;;;;;11.26;55.30;96382.94;5012285;28;20227;-79
2024/03/06 11:32:07;;;;;;;6.73;5.20;;;;;;;11.25;55.05;96390.16;5012002;28;20749;-79
2024/03/06 11:34:34;;;;;;;8.63;6.67;;;;;;;11.07;56.38;96390.22;5012298;28;20570;-79
2024/03/06 11:37:07;;;;;;;7.63;5.90;;;;;;;11.20;56.41;96382.25;5011347;28;20195;-79
2024/03/06 11:39:38;;;;;;;14.80;9.63;;;;;;;11.06;57.23;96380.66;5011993;28;20242;-79